Time;durP1;ratioP1;P1;durP2;ratioP2;P2;SDS_P1;SDS_P2;PMS_P1;PMS_P2;Temp;Humidity;BMP_temperature;BMP_pressure;BME280_temperature;BME280_humidity;BME280_pressure;Samples;Min_cycle;Max_cycle;Signal;HPM_P1;HPM_P2
2024/01/21 00:01:03;;;;;;;0.30;0.30;;;;;;;;;;5023956;28;20196;-84
2024/01/21 00:03:30;;;;;;;1.17;1.10;;;;;;;;;;5016371;28;20201;-84
2024/01/21 00:05:59;;;;;;;0.80;0.80;;;;;;;;;;5021587;28;20272;-84
2024/01/21 00:08:26;;;;;;;0.10;0.10;;;;;;;;;;5022564;28;20232;-84
2024/01/21 00:10:54;;;;;;;1.63;1.43;;;;;;;;;;5013517;28;20193;-85
2024/01/21 00:13:22;;;;;;;0.70;0.70;;;;;;;;;;5023311;28;20192;-85
2024/01/21 00:15:51;;;;;;;0.50;0.50;;;;;;;;;;5017635;28;20204;-85
2024/01/21 00:18:18;;;;;;;0.73;0.73;;;;;;;;;;5018253;28;20282;-84
2024/01/21 00:20:46;;;;;;;0.43;0.43;;;;;;;;;;5023688;28;20219;-84
2024/01/21 00:23:13;;;;;;;2.90;0.60;;;;;;;;;;4993449;28;20697;-83
2024/01/21 00:25:41;;;;;;;0.50;0.50;;;;;;;;;;5014514;28;20705;-84
2024/01/21 00:28:08;;;;;;;0.57;0.57;;;;;;;;;;5009770;28;20228;-84
2024/01/21 00:30:35;;;;;;;0.93;0.50;;;;;;;;;;5018661;28;20237;-85
2024/01/21 00:33:05;;;;;;;0.60;0.60;;;;;;;;;;5028635;28;20298;-84
2024/01/21 00:35:33;;;;;;;0.50;0.50;;;;;;;;;;5022712;28;20736;-85
2024/01/21 00:38:02;;;;;;;1.17;0.43;;;;;;;;;;5013831;28;20280;-85
2024/01/21 00:40:30;;;;;;;0.33;0.33;;;;;;;;;;5006787;28;20198;-84
2024/01/21 00:42:59;;;;;;;1.60;0.97;;;;;;;;;;5006356;28;20208;-83
2024/01/21 00:45:27;;;;;;;0.30;0.30;;;;;;;;;;5021714;28;20197;-84
2024/01/21 00:47:55;;;;;;;1.03;0.50;;;;;;;;;;5017721;28;20238;-84
2024/01/21 00:50:24;;;;;;;0.20;0.20;;;;;;;;;;5017229;28;20609;-84
2024/01/21 00:52:53;;;;;;;0.57;0.57;;;;;;;;;;4996662;28;20654;-85
2024/01/21 00:55:22;;;;;;;0.80;0.80;;;;;;;;;;5013221;28;20237;-84
2024/01/21 00:57:49;;;;;;;4.37;0.47;;;;;;;;;;5017362;28;20231;-84
2024/01/21 01:00:17;;;;;;;0.40;0.40;;;;;;;;;;5017811;28;20308;-84
2024/01/21 01:02:46;;;;;;;0.40;0.40;;;;;;;;;;5014960;28;20222;-84
2024/01/21 01:05:15;;;;;;;0.53;0.53;;;;;;;;;;5013649;28;20192;-85
2024/01/21 01:07:45;;;;;;;0.30;0.30;;;;;;;;;;5014729;28;20216;-85
2024/01/21 01:10:13;;;;;;;2.87;0.67;;;;;;;;;;5018995;28;20223;-85
2024/01/21 01:12:41;;;;;;;0.70;0.70;;;;;;;;;;5014352;28;20255;-85
2024/01/21 01:15:11;;;;;;;0.67;0.67;;;;;;;;;;5019589;28;20208;-84
2024/01/21 01:17:38;;;;;;;0.73;0.73;;;;;;;;;;5009351;28;20701;-84
2024/01/21 01:20:06;;;;;;;0.17;0.17;;;;;;;;;;5013265;28;20240;-84
2024/01/21 01:22:33;;;;;;;0.67;0.67;;;;;;;;;;5012612;28;20204;-86
2024/01/21 01:25:02;;;;;;;0.40;0.40;;;;;;;;;;5012708;28;20589;-84
2024/01/21 01:27:30;;;;;;;0.53;0.53;;;;;;;;;;5014009;28;20220;-83
2024/01/21 01:29:58;;;;;;;0.30;0.30;;;;;;;;;;5019368;28;20296;-84
2024/01/21 01:32:25;;;;;;;0.70;0.70;;;;;;;;;;5022126;28;20194;-82
2024/01/21 01:34:55;;;;;;;0.60;0.57;;;;;;;;;;5012590;28;20193;-84
2024/01/21 01:37:22;;;;;;;2.00;0.57;;;;;;;;;;5021233;28;20204;-84
2024/01/21 01:39:49;;;;;;;1.20;0.70;;;;;;;;;;5017563;28;20280;-85
2024/01/21 01:42:18;;;;;;;0.83;0.83;;;;;;;;;;5019697;28;20204;-84
2024/01/21 01:44:45;;;;;;;1.23;0.43;;;;;;;;;;5024771;28;20204;-86
2024/01/21 01:47:12;;;;;;;0.50;0.50;;;;;;;;;;5029332;28;20228;-84
2024/01/21 01:49:42;;;;;;;0.30;0.30;;;;;;;;;;5035315;28;20210;-83
2024/01/21 01:52:11;;;;;;;4.13;0.67;;;;;;;;;;5018330;28;20236;-85
2024/01/21 01:54:42;;;;;;;0.70;0.70;;;;;;;;;;5022771;28;20231;-84
2024/01/21 01:57:11;;;;;;;2.53;0.80;;;;;;;;;;5014412;28;20196;-84
2024/01/21 01:59:40;;;;;;;1.70;0.53;;;;;;;;;;5029274;28;20553;-85
2024/01/21 02:02:08;;;;;;;0.70;0.30;;;;;;;;;;5035907;28;20196;-83
2024/01/21 02:04:35;;;;;;;0.50;0.50;;;;;;;;;;5028753;28;20271;-84
2024/01/21 02:07:03;;;;;;;0.20;0.20;;;;;;;;;;5014526;28;20290;-84
2024/01/21 02:09:32;;;;;;;0.73;0.73;;;;;;;;;;5006077;28;20221;-83
2024/01/21 02:11:59;;;;;;;1.07;1.07;;;;;;;;;;5016430;28;20208;-83
2024/01/21 02:14:26;;;;;;;0.57;0.57;;;;;;;;;;5019230;28;20207;-84
2024/01/21 02:16:55;;;;;;;2.03;0.93;;;;;;;;;;5011824;28;20276;-84
2024/01/21 02:19:26;;;;;;;0.57;0.57;;;;;;;;;;5021572;28;20199;-84
2024/01/21 02:21:53;;;;;;;0.50;0.47;;;;;;;;;;5016304;28;20200;-84
2024/01/21 02:24:22;;;;;;;0.47;0.47;;;;;;;;;;5016134;28;20189;-84
2024/01/21 02:26:50;;;;;;;2.07;1.03;;;;;;;;;;4996089;28;20215;-84
2024/01/21 02:29:17;;;;;;;0.60;0.60;;;;;;;;;;5011990;28;20224;-84
2024/01/21 02:31:44;;;;;;;0.30;0.30;;;;;;;;;;5010890;28;20201;-83
2024/01/21 02:34:11;;;;;;;5.17;1.03;;;;;;;;;;5018161;28;20216;-84
2024/01/21 02:36:39;;;;;;;0.80;0.40;;;;;;;;;;5030615;28;20192;-82
2024/01/21 02:39:07;;;;;;;0.50;0.50;;;;;;;;;;5027598;28;20299;-84
2024/01/21 02:41:37;;;;;;;0.27;0.27;;;;;;;;;;5040935;28;20264;-84
2024/01/21 02:44:05;;;;;;;0.87;0.30;;;;;;;;;;5021547;28;20222;-84
2024/01/21 02:46:33;;;;;;;1.63;0.27;;;;;;;;;;5014777;28;20201;-83
2024/01/21 02:49:00;;;;;;;0.40;0.40;;;;;;;;;;5011846;28;20791;-83
2024/01/21 02:51:30;;;;;;;0.33;0.33;;;;;;;;;;5012259;28;20682;-84
2024/01/21 02:53:58;;;;;;;0.30;0.30;;;;;;;;;;5018373;28;20230;-84
2024/01/21 02:56:26;;;;;;;0.70;0.53;;;;;;;;;;5024590;28;20233;-84
2024/01/21 02:58:55;;;;;;;2.13;0.50;;;;;;;;;;5038465;28;20224;-84
2024/01/21 03:01:25;;;;;;;0.40;0.40;;;;;;;;;;5030000;28;20180;-83
2024/01/21 03:03:52;;;;;;;1.80;0.43;;;;;;;;;;5040445;28;20197;-83
2024/01/21 03:06:19;;;;;;;1.13;0.50;;;;;;;;;;5020478;28;20199;-85
2024/01/21 03:08:46;;;;;;;0.20;0.20;;;;;;;;;;5011377;28;20672;-84
2024/01/21 03:11:14;;;;;;;1.63;0.43;;;;;;;;;;5020745;28;20196;-83
2024/01/21 03:13:42;;;;;;;0.17;0.17;;;;;;;;;;5013720;28;20274;-83
2024/01/21 03:16:11;;;;;;;0.30;0.30;;;;;;;;;;5032775;28;20287;-84
2024/01/21 03:18:39;;;;;;;1.40;1.03;;;;;;;;;;5013357;28;20199;-83
2024/01/21 03:21:06;;;;;;;1.80;1.00;;;;;;;;;;5020319;28;20193;-85
2024/01/21 03:23:34;;;;;;;0.23;0.23;;;;;;;;;;5016089;28;20275;-83
2024/01/21 03:26:01;;;;;;;1.67;1.57;;;;;;;;;;5020182;28;20338;-84
2024/01/21 03:28:29;;;;;;;0.60;0.60;;;;;;;;;;5020568;28;20228;-84
2024/01/21 03:30:58;;;;;;;0.30;0.30;;;;;;;;;;5026805;28;20401;-84
2024/01/21 03:33:27;;;;;;;0.67;0.67;;;;;;;;;;5013920;28;20224;-85
2024/01/21 03:35:55;;;;;;;0.40;0.40;;;;;;;;;;5015527;28;20247;-84
2024/01/21 03:38:22;;;;;;;0.50;0.50;;;;;;;;;;5015476;28;20199;-84
2024/01/21 03:40:49;;;;;;;0.27;0.20;;;;;;;;;;4991690;28;20233;-84
2024/01/21 03:43:18;;;;;;;0.90;0.90;;;;;;;;;;4990835;28;20411;-83
2024/01/21 03:45:45;;;;;;;1.33;1.23;;;;;;;;;;5002491;28;20227;-84
2024/01/21 03:48:13;;;;;;;1.10;0.73;;;;;;;;;;5018799;28;20231;-83
2024/01/21 03:50:42;;;;;;;0.43;0.43;;;;;;;;;;5012018;28;20220;-83
2024/01/21 03:53:11;;;;;;;0.60;0.57;;;;;;;;;;5011025;28;20201;-84
2024/01/21 03:55:38;;;;;;;1.03;0.63;;;;;;;;;;5029327;28;20236;-84
2024/01/21 03:58:07;;;;;;;0.60;0.60;;;;;;;;;;5030543;28;20283;-84
2024/01/21 04:00:34;;;;;;;0.83;0.83;;;;;;;;;;5031731;28;20286;-83
2024/01/21 04:03:02;;;;;;;1.10;1.10;;;;;;;;;;5017007;28;20228;-84
2024/01/21 04:05:29;;;;;;;0.93;0.93;;;;;;;;;;5025916;28;20212;-85
2024/01/21 04:07:59;;;;;;;2.60;0.70;;;;;;;;;;5023714;28;20685;-84
2024/01/21 04:10:26;;;;;;;1.53;1.00;;;;;;;;;;5036943;28;20200;-84
2024/01/21 04:12:53;;;;;;;0.83;0.50;;;;;;;;;;5045857;28;20203;-83
2024/01/21 04:15:21;;;;;;;1.07;0.97;;;;;;;;;;5028168;28;20208;-84
2024/01/21 04:17:49;;;;;;;0.70;0.70;;;;;;;;;;5014825;28;20226;-85
2024/01/21 04:20:16;;;;;;;0.70;0.70;;;;;;;;;;5021141;28;20193;-85
2024/01/21 04:22:43;;;;;;;1.23;0.63;;;;;;;;;;5016474;28;20356;-83
2024/01/21 04:25:12;;;;;;;3.60;0.70;;;;;;;;;;5023699;28;20204;-84
2024/01/21 04:27:40;;;;;;;0.37;0.37;;;;;;;;;;5016992;28;20192;-84
2024/01/21 04:30:09;;;;;;;0.50;0.50;;;;;;;;;;5019363;28;20311;-84
2024/01/21 04:32:36;;;;;;;0.70;0.57;;;;;;;;;;5022531;28;20199;-83
2024/01/21 04:35:04;;;;;;;0.77;0.63;;;;;;;;;;5013038;28;20201;-83
2024/01/21 04:37:31;;;;;;;1.13;1.07;;;;;;;;;;5023911;28;20208;-84
2024/01/21 04:39:58;;;;;;;0.87;0.63;;;;;;;;;;5019491;28;20258;-83
2024/01/21 04:42:30;;;;;;;1.30;0.53;;;;;;;;;;5017018;28;20199;-84
2024/01/21 04:44:58;;;;;;;0.43;0.43;;;;;;;;;;5023061;28;20208;-83
2024/01/21 04:47:27;;;;;;;1.37;0.87;;;;;;;;;;5015457;28;20196;-83
2024/01/21 04:49:54;;;;;;;0.70;0.70;;;;;;;;;;5020736;28;20689;-83
2024/01/21 04:52:22;;;;;;;0.93;0.93;;;;;;;;;;5022362;28;20192;-83
2024/01/21 04:54:52;;;;;;;0.70;0.70;;;;;;;;;;5029926;28;20217;-83
2024/01/21 04:57:20;;;;;;;0.43;0.43;;;;;;;;;;5012850;28;20205;-84
2024/01/21 04:59:49;;;;;;;1.07;1.07;;;;;;;;;;5021079;28;20211;-84
2024/01/21 05:02:18;;;;;;;1.13;1.13;;;;;;;;;;5021207;28;20192;-84
2024/01/21 05:04:45;;;;;;;2.03;1.93;;;;;;;;;;5013262;28;20211;-83
2024/01/21 05:07:12;;;;;;;2.23;1.63;;;;;;;;;;5028978;28;20257;-84
2024/01/21 05:09:39;;;;;;;1.07;1.07;;;;;;;;;;5021790;28;20232;-84
2024/01/21 05:12:07;;;;;;;1.27;1.13;;;;;;;;;;5018984;28;20223;-84
2024/01/21 05:14:35;;;;;;;5.03;1.33;;;;;;;;;;5015894;28;20299;-84
2024/01/21 05:17:06;;;;;;;2.50;1.20;;;;;;;;;;5023177;28;20211;-84
2024/01/21 05:19:33;;;;;;;2.83;1.77;;;;;;;;;;5015992;28;20205;-82
2024/01/21 05:22:02;;;;;;;0.87;0.87;;;;;;;;;;5023349;28;20204;-83
2024/01/21 05:24:29;;;;;;;1.07;1.07;;;;;;;;;;5020591;28;20209;-84
2024/01/21 05:26:57;;;;;;;1.03;0.97;;;;;;;;;;5035338;28;20250;-84
2024/01/21 05:29:25;;;;;;;2.20;1.23;;;;;;;;;;5014890;28;20637;-83
2024/01/21 05:31:52;;;;;;;0.53;0.53;;;;;;;;;;5035160;28;20231;-84
2024/01/21 05:34:22;;;;;;;2.53;2.00;;;;;;;;;;5033504;28;20283;-83
2024/01/21 05:36:50;;;;;;;1.60;1.50;;;;;;;;;;5028670;28;20215;-84
2024/01/21 05:39:18;;;;;;;5.23;1.53;;;;;;;;;;5012752;28;20227;-83
2024/01/21 05:42:02;;;;;;;0.73;0.73;;;;;;;;;;5013443;28;20283;-84
2024/01/21 05:44:30;;;;;;;2.00;1.03;;;;;;;;;;5021970;28;20759;-84
2024/01/21 05:46:59;;;;;;;1.40;1.40;;;;;;;;;;5012097;28;20285;-84
2024/01/21 05:49:28;;;;;;;1.77;0.60;;;;;;;;;;5021170;28;20312;-84
2024/01/21 05:51:55;;;;;;;0.70;0.70;;;;;;;;;;5017846;28;20227;-83
2024/01/21 05:54:25;;;;;;;0.97;0.97;;;;;;;;;;5016854;28;20185;-84
2024/01/21 05:56:53;;;;;;;0.67;0.67;;;;;;;;;;4996364;28;20205;-84
2024/01/21 05:59:21;;;;;;;1.37;0.87;;;;;;;;;;5013058;28;20203;-84
2024/01/21 06:01:48;;;;;;;1.77;1.67;;;;;;;;;;5032201;28;20208;-85
2024/01/21 06:04:16;;;;;;;1.20;1.20;;;;;;;;;;5016756;28;20201;-84
2024/01/21 06:06:44;;;;;;;3.20;1.50;;;;;;;;;;5013015;28;20665;-84
2024/01/21 06:09:12;;;;;;;5.33;1.00;;;;;;;;;;5031761;28;20643;-85
2024/01/21 06:11:39;;;;;;;1.70;0.97;;;;;;;;;;5030973;28;20212;-82
2024/01/21 06:14:07;;;;;;;2.47;2.27;;;;;;;;;;5025209;28;20501;-83
2024/01/21 06:16:37;;;;;;;0.77;0.77;;;;;;;;;;5025629;28;20189;-84
2024/01/21 06:19:04;;;;;;;1.37;1.27;;;;;;;;;;5033475;28;20203;-84
2024/01/21 06:21:31;;;;;;;2.53;0.97;;;;;;;;;;5032612;28;20226;-83
2024/01/21 06:23:59;;;;;;;1.30;1.10;;;;;;;;;;5019049;28;20291;-85
2024/01/21 06:26:41;;;;;;;9.53;1.43;;;;;;;;;;5020845;28;20199;-84
2024/01/21 06:29:09;;;;;;;2.30;2.20;;;;;;;;;;5012196;28;20606;-83
2024/01/21 06:31:39;;;;;;;5.30;2.50;;;;;;;;;;5020811;28;20197;-83
2024/01/21 06:34:07;;;;;;;2.07;1.97;;;;;;;;;;5017974;28;20303;-83
2024/01/21 06:36:34;;;;;;;4.57;1.67;;;;;;;;;;5030230;28;20258;-86
2024/01/21 06:39:03;;;;;;;1.67;1.57;;;;;;;;;;5011316;28;20659;-85
2024/01/21 06:41:30;;;;;;;2.00;1.70;;;;;;;;;;5012467;28;20324;-86
2024/01/21 06:43:58;;;;;;;1.80;1.70;;;;;;;;;;5009823;28;20274;-84
2024/01/21 06:46:27;;;;;;;1.90;1.77;;;;;;;;;;5014983;28;20209;-84
2024/01/21 06:48:56;;;;;;;1.47;1.37;;;;;;;;;;5014372;28;20230;-85
2024/01/21 06:51:31;;;;;;;1.50;1.40;;;;;;;;;;5012175;28;20197;-85
2024/01/21 06:53:59;;;;;;;1.23;1.00;;;;;;;;;;5009110;28;20200;-85
2024/01/21 06:56:28;;;;;;;1.10;1.10;;;;;;;;;;5014183;28;20621;-85
2024/01/21 06:58:55;;;;;;;5.83;2.10;;;;;;;;;;5020179;28;20288;-85
2024/01/21 07:01:23;;;;;;;1.27;1.17;;;;;;;;;;5008384;28;20251;-86
2024/01/21 07:03:50;;;;;;;1.00;1.00;;;;;;;;;;5007743;28;20617;-84
2024/01/21 07:06:17;;;;;;;3.13;1.63;;;;;;;;;;5007065;28;20747;-85
2024/01/21 07:08:44;;;;;;;3.03;1.57;;;;;;;;;;5002661;28;20300;-84
2024/01/21 07:11:11;;;;;;;1.53;1.43;;;;;;;;;;5025143;28;20204;-85
2024/01/21 07:13:41;;;;;;;3.00;1.33;;;;;;;;;;5022137;28;20215;-85
2024/01/21 07:16:09;;;;;;;2.67;2.43;;;;;;;;;;5027204;28;20270;-85
2024/01/21 07:18:36;;;;;;;2.97;2.67;;;;;;;;;;5028919;28;20196;-84
2024/01/21 07:21:05;;;;;;;3.90;2.80;;;;;;;;;;5011484;28;20200;-85
2024/01/21 07:23:32;;;;;;;3.83;2.20;;;;;;;;;;5041442;28;20224;-84
2024/01/21 07:26:00;;;;;;;2.03;1.83;;;;;;;;;;5034575;28;20247;-84
2024/01/21 07:28:27;;;;;;;1.50;1.50;;;;;;;;;;5015297;28;20216;-85
2024/01/21 07:30:56;;;;;;;5.53;2.13;;;;;;;;;;5020311;28;20235;-84
2024/01/21 07:33:23;;;;;;;3.60;1.90;;;;;;;;;;5010292;28;20196;-86
2024/01/21 07:36:03;;;;;;;2.90;2.00;;;;;;;;;;5021226;28;20218;-86
2024/01/21 07:38:32;;;;;;;6.07;2.93;;;;;;;;;;5023900;28;20258;-87
2024/01/21 07:41:15;;;;;;;4.43;1.90;;;;;;;;;;5015382;28;20293;-88
2024/01/21 07:43:46;;;;;;;3.13;1.90;;;;;;;;;;5037250;28;20204;-87
2024/01/21 07:46:19;;;;;;;2.60;2.07;;;;;;;;;;5035895;28;20211;-86
2024/01/21 07:48:50;;;;;;;1.87;1.77;;;;;;;;;;5015473;28;20223;-86
2024/01/21 07:51:18;;;;;;;1.87;1.77;;;;;;;;;;5024625;28;20251;-87
2024/01/21 07:53:47;;;;;;;1.70;1.60;;;;;;;;;;5010456;28;20252;-87
2024/01/21 07:56:16;;;;;;;2.23;1.33;;;;;;;;;;5020762;28;20271;-87
2024/01/21 07:58:44;;;;;;;1.47;1.37;;;;;;;;;;5015661;28;20205;-86
2024/01/21 08:01:17;;;;;;;1.90;1.70;;;;;;;;;;5025852;28;20211;-87
2024/01/21 08:03:46;;;;;;;1.87;1.50;;;;;;;;;;5015995;28;20294;-86
2024/01/21 08:06:14;;;;;;;1.90;1.80;;;;;;;;;;5022744;28;20204;-87
2024/01/21 08:08:48;;;;;;;1.93;1.83;;;;;;;;;;5012671;28;20728;-87
2024/01/21 08:11:16;;;;;;;1.63;1.33;;;;;;;;;;5022870;28;20228;-86
2024/01/21 08:13:44;;;;;;;1.43;1.33;;;;;;;;;;5017497;28;20188;-85
2024/01/21 08:16:13;;;;;;;3.10;1.90;;;;;;;;;;5032298;28;20624;-85
2024/01/21 08:18:41;;;;;;;2.33;1.90;;;;;;;;;;5015799;28;20243;-86
2024/01/21 08:21:12;;;;;;;1.97;1.57;;;;;;;;;;5022524;28;20232;-85
2024/01/21 08:23:40;;;;;;;2.67;2.10;;;;;;;;;;5015425;28;20207;-85
2024/01/21 08:26:07;;;;;;;1.90;1.30;;;;;;;;;;5018147;28;20625;-84
2024/01/21 08:28:35;;;;;;;1.73;1.33;;;;;;;;;;5013646;28;20259;-84
2024/01/21 08:31:07;;;;;;;3.40;1.93;;;;;;;;;;5025287;28;20228;-84
2024/01/21 08:33:35;;;;;;;7.00;2.07;;;;;;;;;;5019505;28;20673;-83
2024/01/21 08:36:02;;;;;;;2.33;1.97;;;;;;;;;;5035658;28;20215;-83
2024/01/21 08:38:31;;;;;;;1.70;1.60;;;;;;;;;;5015345;28;20219;-83
2024/01/21 08:40:59;;;;;;;1.53;1.43;;;;;;;;;;5021274;28;20220;-84
2024/01/21 08:43:29;;;;;;;1.50;1.37;;;;;;;;;;5014847;28;20197;-83
2024/01/21 08:45:59;;;;;;;2.20;2.00;;;;;;;;;;5020095;28;20213;-82
2024/01/21 08:48:29;;;;;;;1.73;1.63;;;;;;;;;;5022383;28;20192;-83
2024/01/21 08:50:58;;;;;;;1.73;1.30;;;;;;;;;;5032136;28;20655;-83
2024/01/21 08:53:25;;;;;;;1.30;1.30;;;;;;;;;;5024971;28;20204;-83
2024/01/21 08:55:53;;;;;;;1.53;1.27;;;;;;;;;;5018395;28;20239;-84
2024/01/21 08:58:21;;;;;;;3.57;2.27;;;;;;;;;;5017412;28;20287;-84
2024/01/21 09:00:48;;;;;;;2.03;1.50;;;;;;;;;;5021914;28;20296;-84
2024/01/21 09:03:15;;;;;;;3.07;2.40;;;;;;;;;;5013560;28;20203;-85
2024/01/21 09:05:42;;;;;;;2.67;1.80;;;;;;;;;;5022613;28;20481;-84
2024/01/21 09:08:10;;;;;;;2.10;2.00;;;;;;;;;;5020683;28;20228;-84
2024/01/21 09:10:37;;;;;;;1.97;1.87;;;;;;;;;;5015021;28;20232;-84
2024/01/21 09:13:08;;;;;;;1.27;1.17;;;;;;;;;;5022002;28;20196;-83
2024/01/21 09:15:35;;;;;;;3.20;2.07;;;;;;;;;;5014566;28;20204;-84
2024/01/21 09:18:03;;;;;;;3.90;1.70;;;;;;;;;;5018989;28;20271;-85
2024/01/21 09:20:30;;;;;;;1.33;1.23;;;;;;;;;;5027145;28;20566;-85
2024/01/21 09:22:57;;;;;;;2.37;1.63;;;;;;;;;;5033436;28;20584;-84
2024/01/21 09:25:24;;;;;;;3.20;1.90;;;;;;;;;;5020599;28;20197;-84
2024/01/21 09:27:52;;;;;;;2.40;2.17;;;;;;;;;;5039921;28;20181;-84
2024/01/21 09:30:24;;;;;;;5.03;2.40;;;;;;;;;;5040813;28;20215;-85
2024/01/21 09:32:52;;;;;;;1.93;1.60;;;;;;;;;;4997184;28;20216;-84
2024/01/21 09:35:21;;;;;;;1.60;1.37;;;;;;;;;;5006643;28;20240;-84
2024/01/21 09:37:55;;;;;;;3.33;2.07;;;;;;;;;;5020953;28;20681;-84
2024/01/21 09:40:22;;;;;;;3.23;2.27;;;;;;;;;;5016211;28;20245;-85
2024/01/21 09:45:39;;;;;;;2.23;1.93;;;;;;;;;;5011204;28;20203;-85
2024/01/21 09:48:21;;;;;;;3.17;2.40;;;;;;;;;;5020236;28;20216;-85
2024/01/21 09:51:01;;;;;;;10.40;3.23;;;;;;;;;;5025557;28;20223;-86
2024/01/21 09:53:28;;;;;;;2.80;2.60;;;;;;;;;;5025805;28;20258;-85
2024/01/21 09:55:57;;;;;;;4.07;2.20;;;;;;;;;;5019133;28;20283;-86
2024/01/21 09:58:24;;;;;;;4.93;2.37;;;;;;;;;;5018216;28;20259;-85
2024/01/21 10:00:56;;;;;;;1.43;1.33;;;;;;;;;;4998363;28;20203;-86
2024/01/21 10:03:26;;;;;;;1.40;1.30;;;;;;;;;;5015030;28;20707;-86
2024/01/21 10:05:57;;;;;;;1.87;1.77;;;;;;;;;;5018279;28;20212;-86
2024/01/21 10:08:24;;;;;;;3.53;2.17;;;;;;;;;;5033104;28;20501;-86
2024/01/21 10:10:52;;;;;;;2.50;2.27;;;;;;;;;;5016754;28;20224;-85
2024/01/21 10:13:21;;;;;;;1.77;1.63;;;;;;;;;;5025645;28;20594;-86
2024/01/21 10:15:48;;;;;;;3.70;2.57;;;;;;;;;;5017910;28;20246;-85
2024/01/21 10:18:16;;;;;;;1.93;1.83;;;;;;;;;;5018871;28;20209;-85
2024/01/21 10:20:46;;;;;;;5.07;2.23;;;;;;;;;;5025628;28;20274;-84
2024/01/21 10:23:15;;;;;;;2.40;2.20;;;;;;;;;;5026959;28;20195;-85
2024/01/21 10:25:44;;;;;;;3.00;2.03;;;;;;;;;;5017303;28;20246;-87
2024/01/21 10:28:16;;;;;;;2.43;2.23;;;;;;;;;;5033603;28;20239;-84
2024/01/21 10:30:45;;;;;;;8.00;1.67;;;;;;;;;;5014093;28;20867;-86
2024/01/21 10:33:13;;;;;;;4.90;1.90;;;;;;;;;;5029634;28;20188;-86
2024/01/21 10:35:43;;;;;;;6.63;2.17;;;;;;;;;;5033753;28;20214;-84
2024/01/21 10:38:11;;;;;;;3.80;2.07;;;;;;;;;;5032866;28;20204;-84
2024/01/21 10:40:43;;;;;;;3.90;1.97;;;;;;;;;;5033039;28;20210;-85
2024/01/21 10:43:15;;;;;;;2.57;2.37;;;;;;;;;;5014570;28;20227;-85
2024/01/21 10:45:51;;;;;;;2.20;2.03;;;;;;;;;;4992575;28;20247;-84
2024/01/21 10:48:25;;;;;;;2.30;2.10;;;;;;;;;;5016543;28;20192;-85
2024/01/21 10:51:00;;;;;;;2.50;2.13;;;;;;;;;;5018951;28;20228;-85
2024/01/21 10:53:28;;;;;;;2.10;1.90;;;;;;;;;;5034722;28;20686;-85
2024/01/21 10:55:57;;;;;;;2.20;2.10;;;;;;;;;;5020673;28;20228;-85
2024/01/21 10:58:26;;;;;;;1.90;1.30;;;;;;;;;;5021369;28;20288;-85
2024/01/21 11:01:04;;;;;;;2.80;1.90;;;;;;;;;;4997461;28;20192;-85
2024/01/21 11:03:38;;;;;;;3.30;1.60;;;;;;;;;;5012732;28;20204;-85
2024/01/21 11:06:12;;;;;;;2.10;2.00;;;;;;;;;;5012649;28;20674;-85
2024/01/21 11:08:43;;;;;;;4.50;2.23;;;;;;;;;;5030851;28;20223;-86
2024/01/21 11:11:28;;;;;;;1.93;1.83;;;;;;;;;;5009962;28;20229;-85
2024/01/21 11:14:09;;;;;;;1.50;1.33;;;;;;;;;;5010083;28;20295;-84
2024/01/21 11:16:43;;;;;;;1.43;1.33;;;;;;;;;;5028305;28;20215;-85
2024/01/21 11:19:21;;;;;;;2.40;1.60;;;;;;;;;;5030068;28;20667;-84
2024/01/21 11:21:56;;;;;;;2.23;2.13;;;;;;;;;;5008456;28;20576;-86
2024/01/21 11:24:32;;;;;;;4.03;1.70;;;;;;;;;;5025549;28;20199;-86
2024/01/21 11:27:02;;;;;;;6.33;2.23;;;;;;;;;;5002279;28;20641;-86
2024/01/21 11:29:30;;;;;;;1.77;1.67;;;;;;;;;;5011314;28;20191;-85
2024/01/21 11:32:00;;;;;;;1.37;1.27;;;;;;;;;;5023858;28;20700;-86
2024/01/21 11:34:30;;;;;;;3.20;2.10;;;;;;;;;;5015935;28;20200;-86
2024/01/21 11:37:01;;;;;;;5.00;2.33;;;;;;;;;;5023096;28;20651;-85
2024/01/21 11:39:28;;;;;;;2.43;2.23;;;;;;;;;;5036677;28;20196;-85
2024/01/21 11:41:55;;;;;;;2.43;1.90;;;;;;;;;;5023053;28;20255;-87
2024/01/21 11:44:23;;;;;;;4.43;2.67;;;;;;;;;;5027867;28;20196;-85
2024/01/21 11:46:53;;;;;;;4.70;2.20;;;;;;;;;;5017341;28;20197;-85
2024/01/21 11:49:21;;;;;;;2.33;2.07;;;;;;;;;;5034110;28;20224;-86
2024/01/21 11:51:57;;;;;;;3.33;2.37;;;;;;;;;;5023810;28;20611;-86
2024/01/21 11:54:30;;;;;;;3.30;2.10;;;;;;;;;;5025201;28;20667;-85
2024/01/21 11:56:57;;;;;;;2.67;2.47;;;;;;;;;;5032884;28;20251;-85
2024/01/21 11:59:25;;;;;;;2.33;2.20;;;;;;;;;;5016852;28;20197;-85
2024/01/21 12:01:55;;;;;;;2.70;2.07;;;;;;;;;;5014940;28;20196;-85
2024/01/21 12:04:24;;;;;;;2.20;2.00;;;;;;;;;;5025756;28;20295;-86
2024/01/21 12:06:52;;;;;;;5.10;2.53;;;;;;;;;;5015786;28;20202;-86
2024/01/21 12:09:19;;;;;;;2.13;2.03;;;;;;;;;;5025265;28;20287;-85
2024/01/21 12:11:53;;;;;;;3.80;1.60;;;;;;;;;;5019552;28;20234;-85
2024/01/21 12:14:21;;;;;;;3.03;2.37;;;;;;;;;;5021613;28;20287;-84
2024/01/21 12:16:50;;;;;;;1.97;1.87;;;;;;;;;;5027662;28;20276;-85
2024/01/21 12:19:18;;;;;;;1.63;1.53;;;;;;;;;;5017723;28;20661;-86
2024/01/21 12:21:47;;;;;;;2.07;1.97;;;;;;;;;;5028378;28;20208;-85
2024/01/21 12:24:14;;;;;;;1.93;1.57;;;;;;;;;;5021419;28;20200;-86
2024/01/21 12:26:45;;;;;;;2.10;1.83;;;;;;;;;;5024861;28;20189;-87
2024/01/21 12:29:14;;;;;;;4.37;2.63;;;;;;;;;;5016935;28;20193;-86
2024/01/21 12:31:48;;;;;;;3.03;2.67;;;;;;;;;;5023449;28;20225;-85
2024/01/21 12:34:17;;;;;;;4.60;2.77;;;;;;;;;;5021671;28;20197;-85
2024/01/21 12:36:47;;;;;;;6.97;1.93;;;;;;;;;;5031676;28;20211;-85
2024/01/21 12:39:15;;;;;;;3.87;2.20;;;;;;;;;;5016041;28;20204;-86
2024/01/21 12:41:42;;;;;;;5.10;3.03;;;;;;;;;;5024622;28;20228;-86
2024/01/21 12:44:11;;;;;;;5.73;2.80;;;;;;;;;;5027184;28;20201;-85
2024/01/21 12:46:57;;;;;;;3.00;2.53;;;;;;;;;;5034620;28;20181;-86
2024/01/21 12:49:31;;;;;;;2.77;2.57;;;;;;;;;;5031696;28;20287;-86
2024/01/21 12:54:52;;;;;;;5.27;3.43;;;;;;;;;;5014288;28;20424;-86
2024/01/21 12:57:55;;;;;;;3.27;2.93;;;;;;;;;;5043309;28;20206;-85
2024/01/21 13:00:22;;;;;;;1.87;1.53;;;;;;;;;;4956182;28;20204;-86
2024/01/21 13:02:50;;;;;;;8.47;4.00;;;;;;;;;;5009350;28;20201;-87
2024/01/21 13:05:22;;;;;;;3.53;2.17;;;;;;;;;;5016075;28;20224;-86
2024/01/21 13:08:00;;;;;;;5.07;3.87;;;;;;;;;;5016112;28;20260;-86
2024/01/21 13:10:29;;;;;;;1.93;1.73;;;;;;;;;;5024606;28;20216;-86
2024/01/21 13:12:57;;;;;;;4.67;2.87;;;;;;;;;;5034016;28;20228;-85
2024/01/21 13:15:28;;;;;;;2.93;2.37;;;;;;;;;;5027516;28;20207;-86
2024/01/21 13:18:14;;;;;;;5.43;2.97;;;;;;;;;;5016609;28;20586;-87
2024/01/21 13:20:51;;;;;;;2.73;2.10;;;;;;;;;;5013438;28;20247;-86
2024/01/21 13:32:19;;;;;;;5.40;2.80;;;;;;;;;;5031263;28;20226;-86
2024/01/21 13:35:05;;;;;;;3.97;3.17;;;;;;;;;;5030117;28;20200;-84
2024/01/21 13:37:48;;;;;;;1.80;1.70;;;;;;;;;;5025551;28;20826;-86
2024/01/21 13:40:19;;;;;;;3.63;2.73;;;;;;;;;;5023358;28;20641;-86
2024/01/21 13:43:05;;;;;;;3.33;2.40;;;;;;;;;;5016750;28;20284;-86
2024/01/21 13:45:53;;;;;;;2.87;1.77;;;;;;;;;;5025331;28;20219;-86
2024/01/21 13:51:12;;;;;;;3.33;2.17;;;;;;;;;;4996849;28;20647;-86
2024/01/21 13:53:52;;;;;;;13.33;5.00;;;;;;;;;;5010610;28;20231;-86
2024/01/21 13:56:24;;;;;;;2.30;2.27;;;;;;;;;;5033637;28;20239;-86
2024/01/21 13:59:04;;;;;;;2.13;1.50;;;;;;;;;;4995600;28;20280;-86
2024/01/21 14:01:54;;;;;;;;;;;;;;;;;;;;;
2024/01/21 14:04:26;;;;;;;8.07;3.93;;;;;;;;;;5034931;28;20203;-86
2024/01/21 14:07:03;;;;;;;1.23;1.23;;;;;;;;;;5034862;28;20203;-85
2024/01/21 14:09:32;;;;;;;4.40;1.50;;;;;;;;;;5024770;28;20216;-86
2024/01/21 14:12:16;;;;;;;1.53;1.23;;;;;;;;;;5021067;28;20675;-86
2024/01/21 14:14:53;;;;;;;;;;;;;;;;;;;;;
2024/01/21 14:17:26;;;;;;;3.57;2.27;;;;;;;;;;5030310;28;20188;-86
2024/01/21 14:20:05;;;;;;;5.97;3.22;;;;;;;;;;5036095;28;20740;-85
2024/01/21 14:22:31;;;;;;;6.83;2.47;;;;;;;;;;5038621;28;20192;-86
2024/01/21 14:25:02;;;;;;;6.60;2.83;;;;;;;;;;5030525;28;20288;-86
2024/01/21 14:27:35;;;;;;;8.70;2.20;;;;;;;;;;5014274;28;20216;-86
2024/01/21 14:30:08;;;;;;;3.30;2.30;;;;;;;;;;5014810;28;20201;-87
2024/01/21 14:32:45;;;;;;;4.07;2.40;;;;;;;;;;5022708;28;20224;-85
2024/01/21 14:35:13;;;;;;;3.53;2.23;;;;;;;;;;4989817;28;20712;-87
2024/01/21 14:37:45;;;;;;;4.50;3.67;;;;;;;;;;5023369;28;20212;-85
2024/01/21 14:40:25;;;;;;;3.33;3.07;;;;;;;;;;5014450;28;20263;-86
2024/01/21 14:42:56;;;;;;;6.50;4.10;;;;;;;;;;4997327;28;20646;-86
2024/01/21 14:45:26;;;;;;;8.43;4.33;;;;;;;;;;5014076;28;20220;-86
2024/01/21 14:47:58;;;;;;;6.17;4.77;;;;;;;;;;5014151;28;20291;-86
2024/01/21 14:50:29;;;;;;;13.07;4.63;;;;;;;;;;5022976;28;20253;-85
2024/01/21 14:52:59;;;;;;;12.97;6.03;;;;;;;;;;5019598;28;20224;-85
2024/01/21 14:55:30;;;;;;;11.70;6.63;;;;;;;;;;5029821;28;20236;-86
2024/01/21 14:58:01;;;;;;;12.13;7.50;;;;;;;;;;5054242;28;20226;-86
2024/01/21 15:00:33;;;;;;;18.00;7.23;;;;;;;;;;5033115;28;20244;-85
2024/01/21 15:03:04;;;;;;;13.87;7.63;;;;;;;;;;5036226;28;20199;-85
2024/01/21 15:05:31;;;;;;;7.87;4.90;;;;;;;;;;5045848;28;20263;-84
2024/01/21 15:08:00;;;;;;;11.67;5.57;;;;;;;;;;5032962;28;20204;-85
2024/01/21 15:10:51;;;;;;;14.77;6.43;;;;;;;;;;5026234;28;20275;-86
2024/01/21 15:13:42;;;;;;;6.27;4.60;;;;;;;;;;5008456;28;20240;-84
2024/01/21 15:16:14;;;;;;;7.67;4.40;;;;;;;;;;5025559;28;20207;-84
2024/01/21 15:18:45;;;;;;;9.30;5.53;;;;;;;;;;5036353;28;20246;-86